Time;durP1;ratioP1;P1;durP2;ratioP2;P2;SDS_P1;SDS_P2;PMS_P1;PMS_P2;Temp;Humidity;BMP_temperature;BMP_pressure;BME280_temperature;BME280_humidity;BME280_pressure;Samples;Min_cycle;Max_cycle;Signal;HPM_P1;HPM_P2
2023/12/09 00:03:22;;;;;;;;;;;7.50;99.90;;;;;;6730500;88;20051;-79
2023/12/09 00:13:22;;;;;;;;;;;7.50;99.90;;;;;;6717481;88;20590;-78
2023/12/09 00:23:23;;;;;;;;;;;7.40;99.90;;;;;;6724327;88;20049;-79
2023/12/09 00:33:23;;;;;;;;;;;7.40;99.90;;;;;;6710438;88;20595;-78
2023/12/09 00:43:24;;;;;;;;;;;7.40;99.90;;;;;;6722506;88;20573;-78
2023/12/09 00:53:24;;;;;;;;;;;7.10;99.90;;;;;;6722020;88;20112;-78
2023/12/09 01:03:25;;;;;;;;;;;6.90;99.90;;;;;;6725493;88;20643;-79
2023/12/09 01:13:25;;;;;;;;;;;6.80;99.90;;;;;;6718163;88;20063;-79
2023/12/09 01:23:25;;;;;;;;;;;6.70;99.90;;;;;;6724056;88;20082;-78
2023/12/09 01:33:26;;;;;;;;;;;6.80;99.90;;;;;;6707413;88;20052;-78
2023/12/09 01:43:26;;;;;;;;;;;6.80;99.90;;;;;;6709235;88;20073;-78
2023/12/09 01:53:28;;;;;;;;;;;6.80;99.90;;;;;;6716000;88;20054;-79
2023/12/09 02:03:29;;;;;;;;;;;6.80;99.90;;;;;;6716832;88;20132;-78
2023/12/09 02:13:51;;;;;;;;;;;6.60;99.90;;;;;;6725196;88;20063;-78
2023/12/09 02:23:52;;;;;;;;;;;6.60;99.90;;;;;;6718759;88;20085;-78
2023/12/09 02:33:53;;;;;;;;;;;6.40;99.90;;;;;;6716985;88;20066;-78
2023/12/09 02:43:53;;;;;;;;;;;6.00;99.90;;;;;;6724346;88;20043;-78
2023/12/09 02:53:56;;;;;;;;;;;5.90;99.90;;;;;;6725923;88;20120;-78
2023/12/09 03:03:57;;;;;;;;;;;5.80;99.90;;;;;;6731140;88;20051;-80
2023/12/09 03:13:57;;;;;;;;;;;5.50;99.90;;;;;;6730293;88;20576;-79
2023/12/09 03:23:58;;;;;;;;;;;5.50;99.90;;;;;;6726467;88;20073;-79
2023/12/09 03:33:58;;;;;;;;;;;5.50;99.90;;;;;;6726019;88;20078;-79
2023/12/09 03:43:59;;;;;;;;;;;5.70;99.90;;;;;;6721955;88;20106;-77
2023/12/09 03:53:59;;;;;;;;;;;5.60;99.90;;;;;;6722191;88;20155;-78
2023/12/09 04:04:00;;;;;;;;;;;5.60;99.90;;;;;;6725512;88;20059;-78
2023/12/09 04:14:00;;;;;;;;;;;5.70;99.90;;;;;;6728189;88;20194;-78
2023/12/09 04:24:01;;;;;;;;;;;5.60;99.90;;;;;;6726883;88;20603;-78
2023/12/09 04:34:01;;;;;;;;;;;5.60;99.90;;;;;;6722269;88;20639;-78
2023/12/09 04:44:02;;;;;;;;;;;5.60;99.90;;;;;;6724201;88;20071;-78
2023/12/09 04:54:03;;;;;;;;;;;5.50;99.90;;;;;;6723950;88;20084;-79
2023/12/09 05:04:03;;;;;;;;;;;5.40;99.90;;;;;;6723173;88;20704;-79
2023/12/09 05:14:04;;;;;;;;;;;5.50;99.90;;;;;;6737207;88;20580;-78
2023/12/09 05:24:04;;;;;;;;;;;5.70;99.90;;;;;;6721378;88;20058;-79
2023/12/09 05:44:08;;;;;;;;;;;5.60;99.90;;;;;;6737604;88;20565;-78
2023/12/09 05:54:09;;;;;;;;;;;5.50;99.90;;;;;;6747103;88;20190;-78
2023/12/09 06:04:09;;;;;;;;;;;5.50;99.90;;;;;;6720903;88;20081;-78
2023/12/09 06:14:10;;;;;;;;;;;5.50;99.90;;;;;;6728458;88;20068;-78
2023/12/09 06:24:11;;;;;;;;;;;5.60;99.90;;;;;;6732159;88;20067;-77
2023/12/09 06:34:12;;;;;;;;;;;5.70;99.90;;;;;;6715207;88;20072;-78
2023/12/09 06:44:12;;;;;;;;;;;5.80;99.90;;;;;;6727135;88;20116;-77
2023/12/09 06:54:13;;;;;;;;;;;5.80;99.90;;;;;;6720491;88;21899;-77
2023/12/09 07:04:13;;;;;;;;;;;5.80;99.90;;;;;;6721905;88;20071;-77
2023/12/09 07:14:15;;;;;;;;;;;5.80;99.90;;;;;;6729147;88;20082;-79
2023/12/09 07:24:15;;;;;;;;;;;5.90;99.90;;;;;;6726966;88;20070;-77
2023/12/09 07:34:18;;;;;;;;;;;5.80;99.90;;;;;;6721941;88;20120;-78
2023/12/09 07:44:19;;;;;;;;;;;5.90;99.90;;;;;;6723500;88;20093;-77
2023/12/09 07:54:19;;;;;;;;;;;6.00;99.90;;;;;;6723187;88;20053;-78
2023/12/09 08:04:20;;;;;;;;;;;6.20;99.90;;;;;;6719784;88;20485;-78
2023/12/09 08:14:20;;;;;;;;;;;6.20;99.90;;;;;;6720220;88;20144;-77
2023/12/09 08:24:21;;;;;;;;;;;6.20;99.90;;;;;;6718964;88;20670;-78
2023/12/09 08:34:22;;;;;;;;;;;6.40;99.90;;;;;;6725512;88;20184;-78
2023/12/09 08:44:22;;;;;;;;;;;6.60;99.90;;;;;;6733464;88;20057;-78
2023/12/09 08:54:22;;;;;;;;;;;6.80;99.90;;;;;;6725411;88;20050;-77
2023/12/09 09:04:23;;;;;;;;;;;7.00;99.90;;;;;;6724999;88;20575;-77
2023/12/09 09:14:23;;;;;;;;;;;7.20;99.90;;;;;;6723665;88;20070;-77
2023/12/09 09:24:24;;;;;;;;;;;7.40;99.90;;;;;;6724450;88;20067;-77
2023/12/09 09:34:24;;;;;;;;;;;7.90;99.90;;;;;;6723239;88;20661;-77
2023/12/09 09:44:27;;;;;;;;;;;8.10;99.90;;;;;;6720453;88;20067;-77
2023/12/09 09:54:28;;;;;;;;;;;8.20;99.90;;;;;;6724284;88;20057;-76
2023/12/09 10:04:29;;;;;;;;;;;8.30;99.90;;;;;;6725724;88;20196;-77
2023/12/09 10:14:29;;;;;;;;;;;8.40;99.90;;;;;;6728111;88;20270;-77
2023/12/09 10:24:29;;;;;;;;;;;8.90;99.90;;;;;;6729383;88;20686;-77
2023/12/09 10:34:30;;;;;;;;;;;9.10;99.90;;;;;;6719121;88;20104;-77
2023/12/09 10:44:31;;;;;;;;;;;9.00;99.90;;;;;;6720132;88;20131;-77
2023/12/09 10:54:31;;;;;;;;;;;9.10;99.90;;;;;;6727157;88;20140;-77
2023/12/09 11:04:32;;;;;;;;;;;9.10;99.90;;;;;;6727856;88;20058;-78
2023/12/09 11:14:34;;;;;;;;;;;9.30;99.90;;;;;;6734893;88;20571;-77
2023/12/09 11:24:34;;;;;;;;;;;9.20;99.90;;;;;;6732503;88;20106;-76
2023/12/09 11:34:35;;;;;;;;;;;9.10;99.90;;;;;;6723566;88;20608;-77
2023/12/09 11:44:36;;;;;;;;;;;9.10;99.90;;;;;;6728909;88;20071;-77
2023/12/09 11:54:37;;;;;;;;;;;9.40;99.90;;;;;;6729643;88;20071;-78
2023/12/09 12:04:37;;;;;;;;;;;9.40;99.90;;;;;;6723863;88;20150;-77
2023/12/09 12:14:38;;;;;;;;;;;9.40;99.90;;;;;;6724731;88;20494;-78
2023/12/09 12:24:41;;;;;;;;;;;9.30;99.90;;;;;;6724409;88;20079;-75
2023/12/09 12:34:43;;;;;;;;;;;9.10;99.90;;;;;;6726347;88;20089;-77
2023/12/09 12:44:43;;;;;;;;;;;9.00;99.90;;;;;;6721893;88;20086;-76
2023/12/09 12:54:44;;;;;;;;;;;8.80;99.90;;;;;;6721419;88;20069;-76
2023/12/09 13:04:45;;;;;;;;;;;8.60;99.90;;;;;;6721204;88;20108;-77
2023/12/09 13:14:45;;;;;;;;;;;8.40;99.90;;;;;;6721809;88;20501;-75
2023/12/09 13:24:46;;;;;;;;;;;8.30;99.90;;;;;;6725759;88;20077;-76
2023/12/09 13:34:47;;;;;;;;;;;8.10;99.90;;;;;;6726809;88;20070;-77
2023/12/09 13:44:47;;;;;;;;;;;8.00;99.90;;;;;;6710411;88;20066;-79
2023/12/09 13:54:49;;;;;;;;;;;7.80;99.90;;;;;;6714116;88;20130;-76
2023/12/09 14:04:49;;;;;;;;;;;7.60;99.90;;;;;;6712214;88;20998;-76
2023/12/09 14:14:50;;;;;;;;;;;7.60;99.90;;;;;;6709898;88;20093;-76
2023/12/09 14:24:50;;;;;;;;;;;7.50;99.90;;;;;;6722082;88;20068;-76
2023/12/09 14:34:51;;;;;;;;;;;7.60;99.90;;;;;;6711313;88;20449;-76
2023/12/09 14:44:51;;;;;;;;;;;7.40;99.90;;;;;;6713070;88;20047;-77
2023/12/09 14:54:52;;;;;;;;;;;7.40;99.90;;;;;;6713222;88;20086;-76
2023/12/09 15:04:53;;;;;;;;;;;7.30;99.90;;;;;;6711839;88;20059;-77
2023/12/09 15:14:53;;;;;;;;;;;7.20;99.90;;;;;;6713275;88;20066;-77
2023/12/09 15:24:54;;;;;;;;;;;7.00;99.90;;;;;;6710138;88;20081;-76
2023/12/09 15:34:54;;;;;;;;;;;6.90;99.90;;;;;;6711514;88;20062;-75
2023/12/09 15:44:54;;;;;;;;;;;6.90;99.90;;;;;;6726842;88;20066;-76
2023/12/09 15:54:55;;;;;;;;;;;6.90;99.90;;;;;;6729840;88;20158;-76
2023/12/09 16:04:55;;;;;;;;;;;6.90;99.90;;;;;;6722666;88;20071;-79
2023/12/09 16:14:56;;;;;;;;;;;6.90;99.90;;;;;;6723432;88;20991;-78
2023/12/09 16:24:56;;;;;;;;;;;7.00;99.90;;;;;;6729553;88;20173;-78
2023/12/09 16:34:57;;;;;;;;;;;6.80;99.90;;;;;;6726516;88;20079;-77
2023/12/09 16:44:57;;;;;;;;;;;6.80;99.90;;;;;;6711320;88;20140;-77
2023/12/09 16:54:58;;;;;;;;;;;6.80;99.90;;;;;;6717039;88;20100;-77
2023/12/09 17:04:59;;;;;;;;;;;6.90;99.90;;;;;;6707936;88;20092;-78
2023/12/09 17:14:59;;;;;;;;;;;6.80;99.90;;;;;;6710187;88;20120;-77
2023/12/09 17:25:00;;;;;;;;;;;7.00;99.90;;;;;;6718931;88;20087;-79
2023/12/09 17:45:06;;;;;;;;;;;7.50;99.90;;;;;;6704233;88;20663;-77
2023/12/09 17:55:07;;;;;;;;;;;7.40;99.90;;;;;;6700465;88;20074;-78
2023/12/09 18:05:08;;;;;;;;;;;7.60;99.90;;;;;;6694163;88;20080;-78
2023/12/09 18:15:09;;;;;;;;;;;7.80;99.90;;;;;;6699420;88;20749;-78
2023/12/09 18:25:09;;;;;;;;;;;7.80;99.90;;;;;;6697954;88;20146;-77
2023/12/09 18:35:11;;;;;;;;;;;7.50;99.90;;;;;;6695695;88;20554;-78
2023/12/09 18:45:11;;;;;;;;;;;7.70;99.90;;;;;;6700441;88;20136;-78
2023/12/09 18:55:12;;;;;;;;;;;8.00;99.90;;;;;;6699677;88;20155;-78
2023/12/09 19:05:12;;;;;;;;;;;8.00;99.90;;;;;;6705426;88;20064;-79
2023/12/09 19:15:13;;;;;;;;;;;8.20;99.90;;;;;;6704659;88;20114;-79
2023/12/09 19:25:13;;;;;;;;;;;8.50;99.90;;;;;;6689577;88;20221;-79
2023/12/09 19:35:14;;;;;;;;;;;8.60;99.90;;;;;;6706544;88;20103;-80
2023/12/09 19:45:14;;;;;;;;;;;8.40;99.90;;;;;;6706845;88;20108;-80
2023/12/09 19:55:15;;;;;;;;;;;8.50;99.90;;;;;;6703858;88;20089;-80
2023/12/09 20:05:17;;;;;;;;;;;8.50;99.90;;;;;;6703628;88;20080;-79
2023/12/09 20:15:18;;;;;;;;;;;8.60;99.90;;;;;;6705263;88;20067;-80
2023/12/09 20:25:18;;;;;;;;;;;8.40;99.90;;;;;;6703255;88;20526;-80
2023/12/09 20:35:19;;;;;;;;;;;8.70;99.90;;;;;;6708678;88;20073;-81
2023/12/09 20:45:20;;;;;;;;;;;9.20;99.90;;;;;;6702229;88;20476;-79
2023/12/09 20:55:21;;;;;;;;;;;9.60;99.90;;;;;;6702274;88;20056;-81
2023/12/09 21:05:21;;;;;;;;;;;10.10;99.90;;;;;;6703082;88;20581;-80
2023/12/09 21:15:22;;;;;;;;;;;10.50;99.90;;;;;;6705155;88;20145;-81
2023/12/09 21:25:23;;;;;;;;;;;10.40;99.90;;;;;;6709613;88;20063;-81
2023/12/09 21:35:23;;;;;;;;;;;10.00;99.90;;;;;;6707546;88;20189;-80
2023/12/09 21:45:24;;;;;;;;;;;9.90;99.90;;;;;;6708474;88;20109;-80
2023/12/09 21:55:25;;;;;;;;;;;9.80;99.90;;;;;;6707051;88;20091;-81
2023/12/09 22:05:26;;;;;;;;;;;9.80;99.90;;;;;;6709069;88;20525;-80
2023/12/09 22:15:26;;;;;;;;;;;9.90;99.90;;;;;;6711595;88;20135;-80
2023/12/09 22:25:27;;;;;;;;;;;9.90;99.90;;;;;;6711442;88;20610;-80
2023/12/09 22:35:31;;;;;;;;;;;10.00;99.90;;;;;;6713957;88;20093;-80
2023/12/09 22:45:32;;;;;;;;;;;10.00;99.90;;;;;;6712875;88;20059;-80
2023/12/09 22:55:32;;;;;;;;;;;10.00;99.90;;;;;;6712994;88;20077;-80
2023/12/09 23:05:33;;;;;;;;;;;10.10;99.90;;;;;;6713515;88;20060;-80
2023/12/09 23:15:33;;;;;;;;;;;10.20;99.90;;;;;;6713395;88;20062;-81
2023/12/09 23:25:34;;;;;;;;;;;10.20;99.90;;;;;;6715503;88;20063;-81
2023/12/09 23:35:34;;;;;;;;;;;10.20;99.90;;;;;;6714554;88;20081;-81
2023/12/09 23:56:37;;;;;;;;;;;10.30;99.90;;;;;;6731044;88;20093;-78
